sensor_id;sensor_type;location;lat;lon;timestamp;pressure;altitude;pressure_sealevel;temperature;humidity
20368;BME280;10343;52.402;9.796;2022-11-25T00:00:49;100804.06;;;5.57;100.00
20368;BME280;10343;52.402;9.796;2022-11-25T00:03:17;100801.44;;;5.57;100.00
20368;BME280;10343;52.402;9.796;2022-11-25T00:05:45;100805.81;;;5.61;100.00
20368;BME280;10343;52.402;9.796;2022-11-25T00:08:13;100802.31;;;5.55;100.00
20368;BME280;10343;52.402;9.796;2022-11-25T00:10:41;100800.56;;;5.61;100.00
20368;BME280;10343;52.402;9.796;2022-11-25T00:13:09;100792.66;;;5.61;100.00
20368;BME280;10343;52.402;9.796;2022-11-25T00:15:36;100797.06;;;5.59;100.00
20368;BME280;10343;52.402;9.796;2022-11-25T00:18:06;100802.31;;;5.61;100.00
20368;BME280;10343;52.402;9.796;2022-11-25T00:20:36;100794.44;;;5.63;100.00
20368;BME280;10343;52.402;9.796;2022-11-25T00:23:04;100790.91;;;5.67;100.00
20368;BME280;10343;52.402;9.796;2022-11-25T00:25:32;100776.88;;;5.71;100.00
20368;BME280;10343;52.402;9.796;2022-11-25T00:27:59;100777.78;;;5.62;100.00
20368;BME280;10343;52.402;9.796;2022-11-25T00:30:27;100770.75;;;5.73;100.00
20368;BME280;10343;52.402;9.796;2022-11-25T00:32:57;100764.56;;;5.85;100.00
20368;BME280;10343;52.402;9.796;2022-11-25T00:35:26;100762.78;;;5.90;100.00
20368;BME280;10343;52.402;9.796;2022-11-25T00:37:54;100756.66;;;5.93;99.67
20368;BME280;10343;52.402;9.796;2022-11-25T00:40:22;100762.78;;;5.93;99.65
20368;BME280;10343;52.402;9.796;2022-11-25T00:42:50;100763.69;;;5.94;98.83
20368;BME280;10343;52.402;9.796;2022-11-25T00:45:36;100769.84;;;5.60;100.00
20368;BME280;10343;52.402;9.796;2022-11-25T00:48:04;100765.47;;;5.66;100.00
20368;BME280;10343;52.402;9.796;2022-11-25T00:50:34;100769.00;;;5.71;99.86
20368;BME280;10343;52.402;9.796;2022-11-25T00:53:01;100768.13;;;5.66;99.50
20368;BME280;10343;52.402;9.796;2022-11-25T00:55:29;100777.75;;;5.60;99.94
20368;BME280;10343;52.402;9.796;2022-11-25T00:58:17;100777.78;;;5.56;99.92
20368;BME280;10343;52.402;9.796;2022-11-25T01:00:45;100767.25;;;5.59;99.64
20368;BME280;10343;52.402;9.796;2022-11-25T01:03:13;100766.38;;;5.55;99.30
20368;BME280;10343;52.402;9.796;2022-11-25T01:05:42;100763.75;;;5.49;100.00
20368;BME280;10343;52.402;9.796;2022-11-25T01:08:12;100767.25;;;5.53;100.00
20368;BME280;10343;52.402;9.796;2022-11-25T01:10:40;100770.75;;;5.52;100.00
20368;BME280;10343;52.402;9.796;2022-11-25T01:13:08;100772.53;;;5.50;100.00
20368;BME280;10343;52.402;9.796;2022-11-25T01:15:36;100774.28;;;5.46;100.00
20368;BME280;10343;52.402;9.796;2022-11-25T01:18:04;100770.75;;;5.59;100.00
20368;BME280;10343;52.402;9.796;2022-11-25T01:20:32;100772.53;;;5.53;99.37
20368;BME280;10343;52.402;9.796;2022-11-25T01:23:01;100769.88;;;5.48;100.00
20368;BME280;10343;52.402;9.796;2022-11-25T01:25:29;100769.00;;;5.48;99.26
20368;BME280;10343;52.402;9.796;2022-11-25T01:27:58;100766.38;;;5.48;99.66
20368;BME280;10343;52.402;9.796;2022-11-25T01:30:26;100769.00;;;5.48;99.31
20368;BME280;10343;52.402;9.796;2022-11-25T01:32:54;100766.38;;;5.49;99.23
20368;BME280;10343;52.402;9.796;2022-11-25T01:35:22;100775.16;;;5.42;99.34
20368;BME280;10343;52.402;9.796;2022-11-25T01:37:50;100778.63;;;5.44;99.38
20368;BME280;10343;52.402;9.796;2022-11-25T01:40:19;100772.50;;;5.36;100.00
20368;BME280;10343;52.402;9.796;2022-11-25T01:42:47;100776.03;;;5.49;98.94
20368;BME280;10343;52.402;9.796;2022-11-25T01:45:35;100768.09;;;5.78;97.15
20368;BME280;10343;52.402;9.796;2022-11-25T01:48:11;100773.34;;;5.78;95.95
20368;BME280;10343;52.402;9.796;2022-11-25T01:50:41;100766.31;;;5.86;95.61
20368;BME280;10343;52.402;9.796;2022-11-25T01:53:10;100770.72;;;5.79;95.81
20368;BME280;10343;52.402;9.796;2022-11-25T01:55:44;100762.88;;;5.47;97.74
20368;BME280;10343;52.402;9.796;2022-11-25T01:58:17;100764.63;;;5.51;98.95
20368;BME280;10343;52.402;9.796;2022-11-25T02:00:48;100762.88;;;5.47;99.19
20368;BME280;10343;52.402;9.796;2022-11-25T02:03:19;100763.75;;;5.48;99.14
20368;BME280;10343;52.402;9.796;2022-11-25T02:05:53;100764.63;;;5.48;99.16
20368;BME280;10343;52.402;9.796;2022-11-25T02:08:23;100761.13;;;5.46;99.40
20368;BME280;10343;52.402;9.796;2022-11-25T02:10:54;100766.38;;;5.49;98.91
20368;BME280;10343;52.402;9.796;2022-11-25T02:13:23;100765.50;;;5.53;98.10
20368;BME280;10343;52.402;9.796;2022-11-25T02:15:51;100762.88;;;5.44;98.83
20368;BME280;10343;52.402;9.796;2022-11-25T02:18:19;100761.13;;;5.51;99.02
20368;BME280;10343;52.402;9.796;2022-11-25T02:20:47;100763.72;;;5.52;98.91
20368;BME280;10343;52.402;9.796;2022-11-25T02:23:21;100757.63;;;5.52;98.46
20368;BME280;10343;52.402;9.796;2022-11-25T02:25:55;100761.13;;;5.58;98.45
20368;BME280;10343;52.402;9.796;2022-11-25T02:28:25;100751.47;;;5.62;97.59
20368;BME280;10343;52.402;9.796;2022-11-25T02:30:54;100747.09;;;5.59;97.22
20368;BME280;10343;52.402;9.796;2022-11-25T02:33:22;100750.59;;;5.58;97.85
20368;BME280;10343;52.402;9.796;2022-11-25T02:35:53;100748.84;;;5.57;98.49
20368;BME280;10343;52.402;9.796;2022-11-25T02:38:25;100748.81;;;5.67;97.85
20368;BME280;10343;52.402;9.796;2022-11-25T02:41:02;100758.47;;;5.61;97.67
20368;BME280;10343;52.402;9.796;2022-11-25T02:43:32;100755.84;;;5.61;98.09
20368;BME280;10343;52.402;9.796;2022-11-25T02:46:03;100746.22;;;5.62;97.24
20368;BME280;10343;52.402;9.796;2022-11-25T02:48:34;100745.31;;;5.61;97.68
20368;BME280;10343;52.402;9.796;2022-11-25T02:51:24;100743.56;;;5.60;97.49
20368;BME280;10343;52.402;9.796;2022-11-25T02:53:54;100755.81;;;5.65;97.59
20368;BME280;10343;52.402;9.796;2022-11-25T02:56:27;100747.09;;;5.59;97.10
20368;BME280;10343;52.402;9.796;2022-11-25T02:58:56;100741.81;;;5.63;96.68
20368;BME280;10343;52.402;9.796;2022-11-25T03:01:26;100738.31;;;5.60;97.22
20368;BME280;10343;52.402;9.796;2022-11-25T03:03:55;100750.59;;;5.61;97.01
20368;BME280;10343;52.402;9.796;2022-11-25T03:06:26;100747.94;;;5.61;96.92
20368;BME280;10343;52.402;9.796;2022-11-25T03:08:54;100743.56;;;5.60;96.52
20368;BME280;10343;52.402;9.796;2022-11-25T03:11:23;100741.81;;;5.55;96.59
20368;BME280;10343;52.402;9.796;2022-11-25T03:14:14;100754.13;;;5.51;96.85
20368;BME280;10343;52.402;9.796;2022-11-25T03:16:42;100754.09;;;5.62;96.61
20368;BME280;10343;52.402;9.796;2022-11-25T03:19:10;100748.81;;;5.60;96.75
20368;BME280;10343;52.402;9.796;2022-11-25T03:21:38;100743.56;;;5.57;97.04
20368;BME280;10343;52.402;9.796;2022-11-25T03:24:06;100756.75;;;5.53;96.82
20368;BME280;10343;52.402;9.796;2022-11-25T03:26:34;100757.59;;;5.56;97.40
20368;BME280;10343;52.402;9.796;2022-11-25T03:29:02;100759.38;;;5.64;96.76
20368;BME280;10343;52.402;9.796;2022-11-25T03:31:32;100757.56;;;5.69;96.69
20368;BME280;10343;52.402;9.796;2022-11-25T03:34:01;100748.81;;;5.70;96.45
20368;BME280;10343;52.402;9.796;2022-11-25T03:36:29;100754.94;;;5.69;96.08
20368;BME280;10343;52.402;9.796;2022-11-25T03:38:57;100752.31;;;5.75;96.08
20368;BME280;10343;52.402;9.796;2022-11-25T03:41:26;100740.94;;;5.67;95.82
20368;BME280;10343;52.402;9.796;2022-11-25T03:43:54;100740.03;;;5.65;96.22
20368;BME280;10343;52.402;9.796;2022-11-25T03:46:22;100741.72;;;5.93;94.96
20368;BME280;10343;52.402;9.796;2022-11-25T03:48:54;100740.88;;;5.99;93.83
20368;BME280;10343;52.402;9.796;2022-11-25T03:51:22;100734.72;;;6.02;93.55
20368;BME280;10343;52.402;9.796;2022-11-25T03:53:51;100736.47;;;6.03;93.87
20368;BME280;10343;52.402;9.796;2022-11-25T03:56:19;100733.88;;;6.00;93.90
20368;BME280;10343;52.402;9.796;2022-11-25T03:58:49;100737.34;;;6.06;93.22
20368;BME280;10343;52.402;9.796;2022-11-25T04:01:18;100735.59;;;6.05;93.19
20368;BME280;10343;52.402;9.796;2022-11-25T04:03:46;100732.97;;;5.99;93.60
20368;BME280;10343;52.402;9.796;2022-11-25T04:06:15;100732.97;;;5.98;93.96
20368;BME280;10343;52.402;9.796;2022-11-25T04:08:47;100732.97;;;5.98;94.10
20368;BME280;10343;52.402;9.796;2022-11-25T04:11:15;100733.00;;;6.01;93.94
20368;BME280;10343;52.402;9.796;2022-11-25T04:13:48;100736.44;;;6.15;92.98
20368;BME280;10343;52.402;9.796;2022-11-25T04:16:20;100744.28;;;6.20;92.79
20368;BME280;10343;52.402;9.796;2022-11-25T04:18:50;100745.22;;;6.17;92.67
20368;BME280;10343;52.402;9.796;2022-11-25T04:21:20;100753.97;;;6.19;92.44
20368;BME280;10343;52.402;9.796;2022-11-25T04:23:48;100755.72;;;6.22;91.99
20368;BME280;10343;52.402;9.796;2022-11-25T04:26:17;100746.09;;;6.10;93.01
20368;BME280;10343;52.402;9.796;2022-11-25T04:28:45;100738.28;;;5.70;95.83
20368;BME280;10343;52.402;9.796;2022-11-25T04:31:13;100733.91;;;5.73;96.58
20368;BME280;10343;52.402;9.796;2022-11-25T04:33:43;100735.66;;;5.68;97.02
20368;BME280;10343;52.402;9.796;2022-11-25T04:36:19;100743.59;;;5.64;98.06
20368;BME280;10343;52.402;9.796;2022-11-25T04:38:47;100741.81;;;5.64;98.29
20368;BME280;10343;52.402;9.796;2022-11-25T04:41:16;100740.03;;;5.65;97.56
20368;BME280;10343;52.402;9.796;2022-11-25T04:43:44;100735.69;;;5.53;98.30
20368;BME280;10343;52.402;9.796;2022-11-25T04:46:14;100728.66;;;5.55;98.88
20368;BME280;10343;52.402;9.796;2022-11-25T04:48:47;100728.69;;;5.61;98.81
20368;BME280;10343;52.402;9.796;2022-11-25T04:51:16;100733.94;;;5.56;99.07
20368;BME280;10343;52.402;9.796;2022-11-25T04:53:47;100734.81;;;5.52;99.71
20368;BME280;10343;52.402;9.796;2022-11-25T04:56:16;100741.81;;;5.56;99.49
20368;BME280;10343;52.402;9.796;2022-11-25T04:58:45;100732.16;;;5.63;99.63
20368;BME280;10343;52.402;9.796;2022-11-25T05:01:43;100733.94;;;5.59;98.94
20368;BME280;10343;52.402;9.796;2022-11-25T05:04:24;100730.44;;;5.51;100.00
20368;BME280;10343;52.402;9.796;2022-11-25T05:06:53;100734.78;;;5.69;99.14
20368;BME280;10343;52.402;9.796;2022-11-25T05:09:24;100734.78;;;5.65;98.92
20368;BME280;10343;52.402;9.796;2022-11-25T05:12:17;100728.66;;;5.56;100.00
20368;BME280;10343;52.402;9.796;2022-11-25T05:14:46;100726.03;;;5.63;99.89
20368;BME280;10343;52.402;9.796;2022-11-25T05:17:17;100723.41;;;5.56;100.00
20368;BME280;10343;52.402;9.796;2022-11-25T05:19:45;100732.19;;;5.55;100.00
20368;BME280;10343;52.402;9.796;2022-11-25T05:22:15;100729.53;;;5.65;100.00
20368;BME280;10343;52.402;9.796;2022-11-25T05:24:46;100726.91;;;5.69;100.00
20368;BME280;10343;52.402;9.796;2022-11-25T05:27:15;100720.75;;;5.67;100.00
20368;BME280;10343;52.402;9.796;2022-11-25T05:29:44;100729.50;;;5.74;99.57
20368;BME280;10343;52.402;9.796;2022-11-25T05:32:20;100720.75;;;5.69;100.00
20368;BME280;10343;52.402;9.796;2022-11-25T05:34:48;100726.91;;;5.61;100.00
20368;BME280;10343;52.402;9.796;2022-11-25T05:37:16;100724.28;;;5.63;100.00
20368;BME280;10343;52.402;9.796;2022-11-25T05:39:57;100722.50;;;5.70;100.00
20368;BME280;10343;52.402;9.796;2022-11-25T05:42:43;100734.78;;;5.69;100.00
20368;BME280;10343;52.402;9.796;2022-11-25T05:45:11;100721.59;;;5.77;100.00
20368;BME280;10343;52.402;9.796;2022-11-25T05:47:39;100721.59;;;5.82;100.00
20368;BME280;10343;52.402;9.796;2022-11-25T05:50:07;100713.72;;;5.78;100.00
20368;BME280;10343;52.402;9.796;2022-11-25T05:52:35;100719.88;;;5.77;100.00
20368;BME280;10343;52.402;9.796;2022-11-25T05:55:06;100715.47;;;5.78;100.00
20368;BME280;10343;52.402;9.796;2022-11-25T05:57:34;100713.72;;;5.78;100.00
20368;BME280;10343;52.402;9.796;2022-11-25T06:00:07;100710.22;;;5.78;100.00
20368;BME280;10343;52.402;9.796;2022-11-25T06:02:43;100718.09;;;5.76;100.00
20368;BME280;10343;52.402;9.796;2022-11-25T06:05:13;100722.47;;;5.91;100.00
20368;BME280;10343;52.402;9.796;2022-11-25T06:07:41;100720.69;;;5.93;99.89
20368;BME280;10343;52.402;9.796;2022-11-25T06:10:11;100721.56;;;5.89;99.99
20368;BME280;10343;52.402;9.796;2022-11-25T06:12:40;100726.84;;;6.05;99.17
20368;BME280;10343;52.402;9.796;2022-11-25T06:15:09;100720.63;;;6.21;98.29
20368;BME280;10343;52.402;9.796;2022-11-25T06:17:38;100725.88;;;6.20;96.97
20368;BME280;10343;52.402;9.796;2022-11-25T06:20:14;100732.00;;;6.23;97.27
20368;BME280;10343;52.402;9.796;2022-11-25T06:22:44;100729.38;;;6.29;97.05
20368;BME280;10343;52.402;9.796;2022-11-25T06:25:14;100743.38;;;6.38;96.07
20368;BME280;10343;52.402;9.796;2022-11-25T06:27:42;100734.63;;;6.26;96.74
20368;BME280;10343;52.402;9.796;2022-11-25T06:30:30;100734.56;;;6.42;96.02
20368;BME280;10343;52.402;9.796;2022-11-25T06:33:09;100731.84;;;6.51;94.78
20368;BME280;10343;52.402;9.796;2022-11-25T06:35:37;100731.78;;;6.63;94.17
20368;BME280;10343;52.402;9.796;2022-11-25T06:38:05;100742.31;;;6.63;94.27
20368;BME280;10343;52.402;9.796;2022-11-25T06:40:35;100760.75;;;6.67;94.08
20368;BME280;10343;52.402;9.796;2022-11-25T06:43:03;100752.00;;;6.65;93.86
20368;BME280;10343;52.402;9.796;2022-11-25T06:45:31;100748.44;;;6.70;93.18
20368;BME280;10343;52.402;9.796;2022-11-25T06:47:59;100751.88;;;6.82;93.38
20368;BME280;10343;52.402;9.796;2022-11-25T06:50:27;100751.84;;;6.89;92.81
20368;BME280;10343;52.402;9.796;2022-11-25T06:52:55;100755.25;;;7.01;92.02
20368;BME280;10343;52.402;9.796;2022-11-25T06:55:23;100755.19;;;7.10;90.96
20368;BME280;10343;52.402;9.796;2022-11-25T06:57:52;100758.69;;;7.15;91.26
20368;BME280;10343;52.402;9.796;2022-11-25T07:00:39;100762.28;;;7.02;92.99
20368;BME280;10343;52.402;9.796;2022-11-25T07:03:07;100765.94;;;6.82;97.86
20368;BME280;10343;52.402;9.796;2022-11-25T07:05:35;100757.22;;;6.71;100.00
20368;BME280;10343;52.402;9.796;2022-11-25T07:08:03;100760.66;;;6.82;100.00
20368;BME280;10343;52.402;9.796;2022-11-25T07:10:33;100763.41;;;6.62;100.00
20368;BME280;10343;52.402;9.796;2022-11-25T07:13:02;100755.47;;;6.67;100.00
20368;BME280;10343;52.402;9.796;2022-11-25T07:15:30;100753.66;;;6.78;100.00
20368;BME280;10343;52.402;9.796;2022-11-25T07:17:58;100753.63;;;6.84;100.00
20368;BME280;10343;52.402;9.796;2022-11-25T07:20:25;100762.47;;;6.74;100.00
20368;BME280;10343;52.402;9.796;2022-11-25T07:22:54;100776.53;;;6.73;100.00
20368;BME280;10343;52.402;9.796;2022-11-25T07:25:21;100776.53;;;6.73;100.00
20368;BME280;10343;52.402;9.796;2022-11-25T07:27:56;100774.66;;;6.87;100.00
20368;BME280;10343;52.402;9.796;2022-11-25T07:30:25;100771.22;;;6.82;100.00
20368;BME280;10343;52.402;9.796;2022-11-25T07:33:12;100773.81;;;6.87;100.00
20368;BME280;10343;52.402;9.796;2022-11-25T07:35:40;100777.25;;;6.96;100.00
20368;BME280;10343;52.402;9.796;2022-11-25T07:38:08;100788.69;;;6.92;100.00
20368;BME280;10343;52.402;9.796;2022-11-25T07:40:36;100797.44;;;7.05;100.00
20368;BME280;10343;52.402;9.796;2022-11-25T07:43:04;100795.63;;;7.09;100.00
20368;BME280;10343;52.402;9.796;2022-11-25T07:45:33;100800.88;;;7.15;100.00
20368;BME280;10343;52.402;9.796;2022-11-25T07:48:06;100806.94;;;7.26;100.00
20368;BME280;10343;52.402;9.796;2022-11-25T07:50:34;100804.31;;;7.23;99.37
20368;BME280;10343;52.402;9.796;2022-11-25T07:53:01;100807.75;;;7.35;99.52
20368;BME280;10343;52.402;9.796;2022-11-25T07:55:29;100818.19;;;7.48;99.21
20368;BME280;10343;52.402;9.796;2022-11-25T07:57:57;100810.22;;;7.53;97.70
20368;BME280;10343;52.402;9.796;2022-11-25T08:00:26;100825.16;;;7.54;96.62
20368;BME280;10343;52.402;9.796;2022-11-25T08:03:13;100812.97;;;7.44;96.38
20368;BME280;10343;52.402;9.796;2022-11-25T08:05:43;100824.25;;;7.58;98.61
20368;BME280;10343;52.402;9.796;2022-11-25T08:08:11;100815.47;;;7.59;96.55
20368;BME280;10343;52.402;9.796;2022-11-25T08:10:39;100826.09;;;7.50;96.54
20368;BME280;10343;52.402;9.796;2022-11-25T08:13:07;100830.31;;;7.70;96.80
20368;BME280;10343;52.402;9.796;2022-11-25T08:15:35;100834.75;;;7.66;95.94
20368;BME280;10343;52.402;9.796;2022-11-25T08:18:03;100830.28;;;7.76;95.61
20368;BME280;10343;52.402;9.796;2022-11-25T08:20:32;100826.72;;;7.80;95.46
20368;BME280;10343;52.402;9.796;2022-11-25T08:23:00;100828.41;;;7.86;95.02
20368;BME280;10343;52.402;9.796;2022-11-25T08:25:28;100830.97;;;7.95;96.35
20368;BME280;10343;52.402;9.796;2022-11-25T08:27:58;100833.75;;;7.81;94.26
20368;BME280;10343;52.402;9.796;2022-11-25T08:30:26;100827.28;;;8.08;94.62
20368;BME280;10343;52.402;9.796;2022-11-25T08:32:54;100831.81;;;7.98;93.52
20368;BME280;10343;52.402;9.796;2022-11-25T08:35:23;100833.59;;;7.93;93.95
20368;BME280;10343;52.402;9.796;2022-11-25T08:37:53;100835.13;;;8.18;94.58
20368;BME280;10343;52.402;9.796;2022-11-25T08:40:21;100837.09;;;7.98;92.44
20368;BME280;10343;52.402;9.796;2022-11-25T08:42:49;100841.44;;;8.03;93.05
20368;BME280;10343;52.402;9.796;2022-11-25T08:45:16;100849.31;;;8.06;91.90
20368;BME280;10343;52.402;9.796;2022-11-25T08:47:45;100849.19;;;8.21;90.97
20368;BME280;10343;52.402;9.796;2022-11-25T08:50:14;100844.72;;;8.28;90.81
20368;BME280;10343;52.402;9.796;2022-11-25T08:52:42;100848.19;;;8.31;90.84
20368;BME280;10343;52.402;9.796;2022-11-25T08:55:12;100849.84;;;8.39;91.47
20368;BME280;10343;52.402;9.796;2022-11-25T08:57:40;100850.88;;;8.27;91.16
20368;BME280;10343;52.402;9.796;2022-11-25T09:00:10;100854.34;;;8.33;90.87
20368;BME280;10343;52.402;9.796;2022-11-25T09:02:37;100849.91;;;8.36;89.56
20368;BME280;10343;52.402;9.796;2022-11-25T09:05:06;100859.47;;;8.49;89.63
20368;BME280;10343;52.402;9.796;2022-11-25T09:07:34;100857.66;;;8.54;89.47
20368;BME280;10343;52.402;9.796;2022-11-25T09:10:02;100867.31;;;8.58;88.84
20368;BME280;10343;52.402;9.796;2022-11-25T09:12:31;100875.31;;;8.49;88.63
20368;BME280;10343;52.402;9.796;2022-11-25T09:15:01;100871.81;;;8.50;89.50
20368;BME280;10343;52.402;9.796;2022-11-25T09:17:29;100865.69;;;8.42;89.60
20368;BME280;10343;52.402;9.796;2022-11-25T09:19:57;100877.09;;;8.50;89.93
20368;BME280;10343;52.402;9.796;2022-11-25T09:22:25;100877.28;;;8.28;88.89
20368;BME280;10343;52.402;9.796;2022-11-25T09:24:56;100873.56;;;8.48;90.79
20368;BME280;10343;52.402;9.796;2022-11-25T09:27:24;100849.69;;;14.70;81.54
20368;BME280;10343;52.402;9.796;2022-11-25T09:29:53;100855.06;;;15.38;58.69
20368;BME280;10343;52.402;9.796;2022-11-25T09:32:21;100822.88;;;22.13;49.64
20368;BME280;10343;52.402;9.796;2022-11-25T09:34:49;100841.75;;;23.76;51.04
20368;BME280;10343;52.402;9.796;2022-11-25T09:37:17;100864.63;;;19.49;54.78
20368;BME280;10343;52.402;9.796;2022-11-25T09:39:44;100880.75;;;14.48;63.44
20368;BME280;10343;52.402;9.796;2022-11-25T09:42:22;100897.31;;;13.22;66.58
20368;BME280;10343;52.402;9.796;2022-11-25T09:45:16;100896.84;;;12.78;70.22
20368;BME280;10343;52.402;9.796;2022-11-25T09:48:18;100899.25;;;12.87;76.71
20368;BME280;10343;52.402;9.796;2022-11-25T09:50:57;100892.50;;;12.75;76.92
20368;BME280;10343;52.402;9.796;2022-11-25T09:53:38;100894.69;;;12.61;75.58
20368;BME280;10343;52.402;9.796;2022-11-25T09:56:16;100895.63;;;12.58;74.13
20368;BME280;10343;52.402;9.796;2022-11-25T09:58:50;100899.31;;;12.54;74.17
20368;BME280;10343;52.402;9.796;2022-11-25T10:01:23;100893.41;;;12.43;72.72
20368;BME280;10343;52.402;9.796;2022-11-25T10:03:56;100894.47;;;12.35;73.05
20368;BME280;10343;52.402;9.796;2022-11-25T10:06:31;100902.66;;;12.61;70.96
20368;BME280;10343;52.402;9.796;2022-11-25T10:09:10;100903.38;;;12.34;71.76
20368;BME280;10343;52.402;9.796;2022-11-25T10:11:49;100897.25;;;12.95;70.53
20368;BME280;10343;52.402;9.796;2022-11-25T10:14:28;100893.63;;;12.66;69.73
20368;BME280;10343;52.402;9.796;2022-11-25T10:17:06;100901.31;;;12.77;70.29
20368;BME280;10343;52.402;9.796;2022-11-25T10:19:50;100903.69;;;12.86;70.56
20368;BME280;10343;52.402;9.796;2022-11-25T10:22:28;100904.72;;;13.42;72.48
20368;BME280;10343;52.402;9.796;2022-11-25T10:24:59;100902.28;;;13.04;70.35
20368;BME280;10343;52.402;9.796;2022-11-25T10:27:37;100909.75;;;12.60;71.49
20368;BME280;10343;52.402;9.796;2022-11-25T10:30:15;100898.25;;;12.91;74.69
20368;BME280;10343;52.402;9.796;2022-11-25T10:32:50;100903.66;;;13.48;71.42
20368;BME280;10343;52.402;9.796;2022-11-25T10:35:34;100904.00;;;13.92;69.46
20368;BME280;10343;52.402;9.796;2022-11-25T10:38:14;100902.75;;;13.75;69.81
20368;BME280;10343;52.402;9.796;2022-11-25T10:40:48;100897.72;;;14.20;72.58
20368;BME280;10343;52.402;9.796;2022-11-25T10:43:26;100901.09;;;14.25;78.65
20368;BME280;10343;52.402;9.796;2022-11-25T10:46:09;100910.09;;;13.96;74.08
20368;BME280;10343;52.402;9.796;2022-11-25T10:48:55;100899.03;;;14.08;72.06
20368;BME280;10343;52.402;9.796;2022-11-25T10:51:43;100912.16;;;13.87;72.68
20368;BME280;10343;52.402;9.796;2022-11-25T10:54:21;100908.53;;;14.40;70.22
20368;BME280;10343;52.402;9.796;2022-11-25T10:56:55;100905.19;;;14.35;72.82
20368;BME280;10343;52.402;9.796;2022-11-25T10:59:29;100911.31;;;14.37;71.83
20368;BME280;10343;52.402;9.796;2022-11-25T11:02:13;100920.84;;;13.92;70.91
20368;BME280;10343;52.402;9.796;2022-11-25T11:04:53;100917.22;;;13.68;68.22
20368;BME280;10343;52.402;9.796;2022-11-25T11:07:24;100920.72;;;13.97;68.51
20368;BME280;10343;52.402;9.796;2022-11-25T11:10:13;100918.41;;;14.38;69.72
20368;BME280;10343;52.402;9.796;2022-11-25T11:12:54;100924.53;;;14.40;68.77
20368;BME280;10343;52.402;9.796;2022-11-25T11:15:24;100924.72;;;14.36;67.16
20368;BME280;10343;52.402;9.796;2022-11-25T11:17:53;100931.81;;;14.10;66.52
20368;BME280;10343;52.402;9.796;2022-11-25T11:20:24;100925.94;;;14.27;66.69
20368;BME280;10343;52.402;9.796;2022-11-25T11:22:57;100919.94;;;14.46;66.65
20368;BME280;10343;52.402;9.796;2022-11-25T11:25:35;100929.81;;;14.17;65.33
20368;BME280;10343;52.402;9.796;2022-11-25T11:28:24;100923.16;;;13.76;65.91
20368;BME280;10343;52.402;9.796;2022-11-25T11:30:55;100926.66;;;14.05;67.98
20368;BME280;10343;52.402;9.796;2022-11-25T11:33:29;100924.97;;;14.28;65.26
20368;BME280;10343;52.402;9.796;2022-11-25T11:36:09;100925.66;;;14.85;65.12
20368;BME280;10343;52.402;9.796;2022-11-25T11:38:48;100920.09;;;15.15;65.87
20368;BME280;10343;52.402;9.796;2022-11-25T11:41:29;100924.53;;;15.15;64.37
20368;BME280;10343;52.402;9.796;2022-11-25T11:44:06;100930.84;;;14.39;63.25
20368;BME280;10343;52.402;9.796;2022-11-25T11:46:58;100918.38;;;14.89;63.46
20368;BME280;10343;52.402;9.796;2022-11-25T11:49:52;100930.53;;;15.21;64.70
20368;BME280;10343;52.402;9.796;2022-11-25T11:52:31;100933.25;;;14.46;64.62
20368;BME280;10343;52.402;9.796;2022-11-25T11:55:22;100933.94;;;15.01;68.05
20368;BME280;10343;52.402;9.796;2022-11-25T11:58:03;100943.69;;;14.53;63.72
20368;BME280;10343;52.402;9.796;2022-11-25T12:00:43;100938.09;;;15.10;64.65
20368;BME280;10343;52.402;9.796;2022-11-25T12:03:15;100939.69;;;15.60;64.39
20368;BME280;10343;52.402;9.796;2022-11-25T12:05:46;100936.97;;;15.16;61.70
20368;BME280;10343;52.402;9.796;2022-11-25T12:08:27;100934.53;;;15.33;61.45
20368;BME280;10343;52.402;9.796;2022-11-25T12:11:01;100933.03;;;15.48;61.69
20368;BME280;10343;52.402;9.796;2022-11-25T12:13:36;100937.47;;;15.25;61.30
20368;BME280;10343;52.402;9.796;2022-11-25T12:16:11;100939.13;;;15.52;61.23
20368;BME280;10343;52.402;9.796;2022-11-25T12:18:44;100938.91;;;15.58;60.79
20368;BME280;10343;52.402;9.796;2022-11-25T12:21:28;100930.69;;;16.07;60.14
20368;BME280;10343;52.402;9.796;2022-11-25T12:24:17;100933.09;;;15.92;57.52
20368;BME280;10343;52.402;9.796;2022-11-25T12:26:52;100935.31;;;16.24;59.52
20368;BME280;10343;52.402;9.796;2022-11-25T12:29:27;100931.56;;;16.48;56.76
20368;BME280;10343;52.402;9.796;2022-11-25T12:34:57;100935.72;;;16.35;55.70
20368;BME280;10343;52.402;9.796;2022-11-25T12:37:31;100943.22;;;16.27;57.52
20368;BME280;10343;52.402;9.796;2022-11-25T12:40:08;100942.94;;;16.33;56.54
20368;BME280;10343;52.402;9.796;2022-11-25T12:42:41;100950.19;;;16.72;55.06
20368;BME280;10343;52.402;9.796;2022-11-25T12:45:16;100943.38;;;17.98;54.16
20368;BME280;10343;52.402;9.796;2022-11-25T12:47:47;100946.88;;;18.01;52.38
20368;BME280;10343;52.402;9.796;2022-11-25T12:50:16;100956.22;;;17.36;52.85
20368;BME280;10343;52.402;9.796;2022-11-25T12:52:52;100963.13;;;16.61;54.43
20368;BME280;10343;52.402;9.796;2022-11-25T12:55:24;100970.72;;;15.64;56.72
20368;BME280;10343;52.402;9.796;2022-11-25T12:58:29;100975.72;;;15.26;59.08
20368;BME280;10343;52.402;9.796;2022-11-25T13:01:20;100973.91;;;15.04;58.70
20368;BME280;10343;52.402;9.796;2022-11-25T13:04:22;100970.69;;;14.69;60.76
20368;BME280;10343;52.402;9.796;2022-11-25T13:10:19;100980.44;;;14.70;60.86
20368;BME280;10343;52.402;9.796;2022-11-25T13:13:12;100990.69;;;14.56;60.86
20368;BME280;10343;52.402;9.796;2022-11-25T13:15:46;100982.97;;;14.48;61.10
20368;BME280;10343;52.402;9.796;2022-11-25T13:18:18;100986.94;;;14.63;60.57
20368;BME280;10343;52.402;9.796;2022-11-25T13:20:49;100990.28;;;14.68;59.96
20368;BME280;10343;52.402;9.796;2022-11-25T13:26:46;100995.53;;;14.71;60.36
20368;BME280;10343;52.402;9.796;2022-11-25T13:32:38;101000.22;;;14.65;61.04
20368;BME280;10343;52.402;9.796;2022-11-25T13:35:34;101005.03;;;14.53;61.27